Pacific Assurance — 9V2620 — position and weather

sailwx.info

Track history (hours):
 
Tides and Currents Weather Stations Pressure Air Temp Water Temp Dewpoint Dewpoint Depression Visibility Wind Speed Wind Dir Waves Ship Positions

Pacific Assurance

Last reported at 2018-Jul-29 22:17 UTC. Time now 2018-Aug-14 15:21 UTC.
Position N 30°13' E 123°29'.
Warning: this ship's position is 15 days out of date.

Length 300 m; draft 8.3 m.

Type: Cargo ship. MMSI: 565199000.

Date/timePositionNaut miles runAvg speedWind from/ knotsBaromVisibWave heightAir tempDewpointWater temp
2018-Jul-29 22:17N 30°13' E 123°29'614.4
2018-Jul-29 21:54N 30°18' E 123°25'714.7
2018-Jul-29 21:26N 30°23' E 123°21'3414.7
2018-Jul-29 19:08N 30°49' E 122°55'215.8
2018-Jul-29 19:00N 30°50' E 122°54'1814.4
2018-Jul-29 17:46N 30°58' E 122°35'414.6
2018-Jul-29 17:30N 30°59' E 122°31'814.3
2018-Jul-29 16:58N 31°01' E 122°22'612.4
2018-Jul-29 16:30N 31°02' E 122°15'4 8.1
2018-Jul-29 16:00N 31°03' E 122°11'3 7.0
2018-Jul-29 15:31N 31°04' E 122°07'4 7.1
2018-Jul-29 15:00N 31°04' E 122°03'7 7.0
2018-Jul-29 14:01N 31°08' E 121°55'4 8.1
2018-Jul-29 13:30N 31°10' E 121°52'5 9.8
2018-Jul-29 13:01N 31°14' E 121°48'7810.6
2018-Jul-29 05:39N 32°00' E 120°35'211.5
2018-Jul-29 05:27N 32°01' E 120°32'812.2
2018-Jul-29 04:50N 32°00' E 120°23'2 0.0
2018-Jul-27 11:28N 31°60' E 120°21'510.0
2018-Jul-27 10:59N 32°02' E 120°26'5 9.8
2018-Jul-27 10:30N 32°01' E 120°32'7810.1
2018-Jul-27 02:49N 31°18' E 121°47'510.4
2018-Jul-27 02:20N 31°16' E 121°53'5 9.5
2018-Jul-27 01:49N 31°15' E 121°58'410.5
2018-Jul-27 01:26N 31°14' E 122°03'15 8.4
2018-Jul-26 23:39N 31°06' E 122°18'1 7.4
2018-Jul-26 23:30N 31°06' E 122°19'610.5
2018-Jul-26 22:55N 31°07' E 122°26'8 2.9
2018-Jul-26 20:03N 31°10' E 122°35'0 0.0
2018-Jul-26 19:57N 31°10' E 122°35'0 0.0
2018-Jul-26 19:09N 31°10' E 122°35'0 0.0
2018-Jul-26 18:57N 31°10' E 122°35'0 0.0
2018-Jul-26 18:09N 31°10' E 122°35'0 0.0
2018-Jul-26 18:00N 31°10' E 122°35'0 0.1
2018-Jul-26 13:48N 31°10' E 122°35'0 0.1
2018-Jul-26 11:03N 31°10' E 122°35'0 0.1
2018-Jul-26 11:00N 31°10' E 122°35'0 0.1
2018-Jul-26 10:30N 31°10' E 122°35'0 0.1
2018-Jul-26 09:24N 31°10' E 122°35'0 0.1
2018-Jul-26 09:00N 31°10' E 122°35'0 0.1
2018-Jul-26 08:15N 31°10' E 122°35'0 0.1
2018-Jul-26 07:48N 31°10' E 122°35'0 0.1
2018-Jul-26 07:27N 31°10' E 122°35'0 0.1
2018-Jul-26 07:00N 31°10' E 122°35'0 0.0
2018-Jul-26 06:30N 31°10' E 122°35'0 0.1
2018-Jul-26 06:00N 31°10' E 122°35'0 0.1
2018-Jul-26 05:30N 31°10' E 122°35'0 0.1
2018-Jul-26 03:57N 31°10' E 122°35'0 0.1
2018-Jul-25 23:57N 31°10' E 122°35'0 0.1
2018-Jul-25 22:45N 31°10' E 122°35'0 0.7
2018-Jul-25 22:30N 31°10' E 122°35'0 0.3
2018-Jul-25 21:51N 31°10' E 122°35'0 0.1
2018-Jul-25 21:27N 31°10' E 122°35'0 0.1
2018-Jul-25 20:54N 31°10' E 122°35'0 0.0
2018-Jul-25 20:30N 31°10' E 122°35'0 0.0
2018-Jul-25 20:00N 31°10' E 122°35'0 0.0
2018-Jul-25 19:30N 31°10' E 122°35'0 0.0
2018-Jul-25 19:00N 31°10' E 122°35'0 0.0
2018-Jul-25 18:30N 31°10' E 122°35'0 0.1
2018-Jul-25 17:57N 31°10' E 122°35'0 0.1
2018-Jul-25 17:24N 31°10' E 122°35'0 0.1
2018-Jul-25 16:36N 31°10' E 122°35'0 0.1
2018-Jul-25 16:30N 31°10' E 122°35'0 0.1
2018-Jul-25 12:15N 31°10' E 122°35'0 0.1
2018-Jul-25 12:00N 31°10' E 122°35'0 0.1
2018-Jul-25 11:30N 31°10' E 122°35'0 0.1
2018-Jul-25 11:00N 31°10' E 122°35'0 0.2
2018-Jul-25 10:27N 31°10' E 122°35'0 0.1
2018-Jul-25 10:00N 31°10' E 122°35'0 0.1
2018-Jul-25 09:30N 31°10' E 122°35'0 0.1
2018-Jul-25 08:24N 31°10' E 122°35'0 0.1
2018-Jul-25 08:00N 31°10' E 122°35'0 0.0
2018-Jul-25 07:21N 31°10' E 122°35'0 0.2
2018-Jul-25 07:00N 31°10' E 122°35'0 0.0
2018-Jul-25 06:24N 31°10' E 122°35'0 0.0
2018-Jul-25 06:00N 31°10' E 122°35'0 0.1
2018-Jul-25 05:24N 31°10' E 122°35'0 0.1
2018-Jul-25 04:57N 31°10' E 122°35'0 0.1
2018-Jul-25 04:30N 31°10' E 122°35'0 0.0
2018-Jul-24 05:30N 31°10' E 122°35'0 0.2
2018-Jul-24 05:00N 31°10' E 122°35'0 0.1
2018-Jul-24 04:27N 31°10' E 122°35'  
Track history (hours):
 
Tides and Currents Weather Stations Pressure Air Temp Water Temp Dewpoint Dewpoint Depression Visibility Wind Speed Wind Dir Waves Ship Positions

Pacific Assurance

Last reported at 2018-Jul-29 22:17 UTC. Time now 2018-Aug-14 15:21 UTC.
Position N 30°13' E 123°29'.
Warning: this ship's position is 15 days out of date.

Length 300 m; draft 8.3 m.

Type: Cargo ship. MMSI: 565199000.

Date/timePositionNaut miles runAvg speedWind from/ knotsBaromVisibWave heightAir tempDewpointWater temp
2018-Jul-29 22:17N 30°13' E 123°29'614.4
2018-Jul-29 21:54N 30°18' E 123°25'714.7
2018-Jul-29 21:26N 30°23' E 123°21'3414.7
2018-Jul-29 19:08N 30°49' E 122°55'215.8
2018-Jul-29 19:00N 30°50' E 122°54'1814.4
2018-Jul-29 17:46N 30°58' E 122°35'414.6
2018-Jul-29 17:30N 30°59' E 122°31'814.3
2018-Jul-29 16:58N 31°01' E 122°22'612.4
2018-Jul-29 16:30N 31°02' E 122°15'4 8.1
2018-Jul-29 16:00N 31°03' E 122°11'3 7.0
2018-Jul-29 15:31N 31°04' E 122°07'4 7.1
2018-Jul-29 15:00N 31°04' E 122°03'7 7.0
2018-Jul-29 14:01N 31°08' E 121°55'4 8.1
2018-Jul-29 13:30N 31°10' E 121°52'5 9.8
2018-Jul-29 13:01N 31°14' E 121°48'7810.6
2018-Jul-29 05:39N 32°00' E 120°35'211.5
2018-Jul-29 05:27N 32°01' E 120°32'812.2
2018-Jul-29 04:50N 32°00' E 120°23'2 0.0
2018-Jul-27 11:28N 31°60' E 120°21'510.0
2018-Jul-27 10:59N 32°02' E 120°26'5 9.8
2018-Jul-27 10:30N 32°01' E 120°32'7810.1
2018-Jul-27 02:49N 31°18' E 121°47'510.4
2018-Jul-27 02:20N 31°16' E 121°53'5 9.5
2018-Jul-27 01:49N 31°15' E 121°58'410.5
2018-Jul-27 01:26N 31°14' E 122°03'15 8.4
2018-Jul-26 23:39N 31°06' E 122°18'1 7.4
2018-Jul-26 23:30N 31°06' E 122°19'610.5
2018-Jul-26 22:55N 31°07' E 122°26'8 2.9
2018-Jul-26 20:03N 31°10' E 122°35'0 0.0
2018-Jul-26 19:57N 31°10' E 122°35'0 0.0
2018-Jul-26 19:09N 31°10' E 122°35'0 0.0
2018-Jul-26 18:57N 31°10' E 122°35'0 0.0
2018-Jul-26 18:09N 31°10' E 122°35'0 0.0
2018-Jul-26 18:00N 31°10' E 122°35'0 0.1
2018-Jul-26 13:48N 31°10' E 122°35'0 0.1
2018-Jul-26 11:03N 31°10' E 122°35'0 0.1
2018-Jul-26 11:00N 31°10' E 122°35'0 0.1
2018-Jul-26 10:30N 31°10' E 122°35'0 0.1
2018-Jul-26 09:24N 31°10' E 122°35'0 0.1
2018-Jul-26 09:00N 31°10' E 122°35'0 0.1
2018-Jul-26 08:15N 31°10' E 122°35'0 0.1
2018-Jul-26 07:48N 31°10' E 122°35'0 0.1
2018-Jul-26 07:27N 31°10' E 122°35'0 0.1
2018-Jul-26 07:00N 31°10' E 122°35'0 0.0
2018-Jul-26 06:30N 31°10' E 122°35'0 0.1
2018-Jul-26 06:00N 31°10' E 122°35'0 0.1
2018-Jul-26 05:30N 31°10' E 122°35'0 0.1
2018-Jul-26 03:57N 31°10' E 122°35'0 0.1
2018-Jul-25 23:57N 31°10' E 122°35'0 0.1
2018-Jul-25 22:45N 31°10' E 122°35'0 0.7
2018-Jul-25 22:30N 31°10' E 122°35'0 0.3
2018-Jul-25 21:51N 31°10' E 122°35'0 0.1
2018-Jul-25 21:27N 31°10' E 122°35'0 0.1
2018-Jul-25 20:54N 31°10' E 122°35'0 0.0
2018-Jul-25 20:30N 31°10' E 122°35'0 0.0
2018-Jul-25 20:00N 31°10' E 122°35'0 0.0
2018-Jul-25 19:30N 31°10' E 122°35'0 0.0
2018-Jul-25 19:00N 31°10' E 122°35'0 0.0
2018-Jul-25 18:30N 31°10' E 122°35'0 0.1
2018-Jul-25 17:57N 31°10' E 122°35'0 0.1
2018-Jul-25 17:24N 31°10' E 122°35'0 0.1
2018-Jul-25 16:36N 31°10' E 122°35'0 0.1
2018-Jul-25 16:30N 31°10' E 122°35'0 0.1
2018-Jul-25 12:15N 31°10' E 122°35'0 0.1
2018-Jul-25 12:00N 31°10' E 122°35'0 0.1
2018-Jul-25 11:30N 31°10' E 122°35'0 0.1
2018-Jul-25 11:00N 31°10' E 122°35'0 0.2
2018-Jul-25 10:27N 31°10' E 122°35'0 0.1
2018-Jul-25 10:00N 31°10' E 122°35'0 0.1
2018-Jul-25 09:30N 31°10' E 122°35'0 0.1
2018-Jul-25 08:24N 31°10' E 122°35'0 0.1
2018-Jul-25 08:00N 31°10' E 122°35'0 0.0
2018-Jul-25 07:21N 31°10' E 122°35'0 0.2
2018-Jul-25 07:00N 31°10' E 122°35'0 0.0
2018-Jul-25 06:24N 31°10' E 122°35'0 0.0
2018-Jul-25 06:00N 31°10' E 122°35'0 0.1
2018-Jul-25 05:24N 31°10' E 122°35'0 0.1
2018-Jul-25 04:57N 31°10' E 122°35'0 0.1
2018-Jul-25 04:30N 31°10' E 122°35'0 0.0
2018-Jul-24 05:30N 31°10' E 122°35'0 0.2
2018-Jul-24 05:00N 31°10' E 122°35'0 0.1
2018-Jul-24 04:27N 31°10' E 122°35'  

Dump ship's entire track history